Time;durP1;ratioP1;P1;durP2;ratioP2;P2;SDS_P1;SDS_P2;PMS_P1;PMS_P2;Temp;Humidity;BMP_temperature;BMP_pressure;BME280_temperature;BME280_humidity;BME280_pressure;Samples;Min_cycle;Max_cycle;Signal;HPM_P1;HPM_P2
2023/06/16 00:01:22;;;;;;;3.40;3.20;;;20.90;22.20;;;;;;10443905;28;20280;-70
2023/06/16 00:06:29;;;;;;;3.33;3.10;;;20.90;22.30;;;;;;10431577;28;20233;-70
2023/06/16 00:11:33;;;;;;;3.80;3.60;;;20.90;22.60;;;;;;10420802;28;20232;-70
2023/06/16 00:16:36;;;;;;;3.93;3.63;;;20.80;22.30;;;;;;10421256;28;20244;-71
2023/06/16 00:21:44;;;;;;;3.83;3.50;;;20.70;22.30;;;;;;10430338;28;20240;-70
2023/06/16 00:26:47;;;;;;;4.20;3.90;;;20.60;22.70;;;;;;10429245;28;20232;-70
2023/06/16 00:31:51;;;;;;;3.87;3.57;;;20.40;22.50;;;;;;10429956;28;20228;-70
2023/06/16 00:36:55;;;;;;;4.03;3.73;;;20.00;22.60;;;;;;10444124;28;20225;-70
2023/06/16 00:41:59;;;;;;;4.27;3.70;;;19.80;23.30;;;;;;10428791;28;20223;-70
2023/06/16 00:47:02;;;;;;;4.10;3.80;;;19.70;23.20;;;;;;10428039;28;20227;-70
2023/06/16 00:52:10;;;;;;;4.10;3.80;;;19.60;23.40;;;;;;10436462;28;20217;-70
2023/06/16 00:57:14;;;;;;;4.90;4.40;;;19.30;24.80;;;;;;10425583;28;20597;-70
2023/06/16 01:02:18;;;;;;;4.03;3.63;;;19.00;24.00;;;;;;10426602;28;20237;-70
2023/06/16 01:07:30;;;;;;;6.03;4.47;;;18.70;24.40;;;;;;10432884;28;20600;-70
2023/06/16 01:12:40;;;;;;;4.77;4.37;;;18.50;25.20;;;;;;10431294;28;20228;-69
2023/06/16 01:17:46;;;;;;;4.50;4.10;;;18.40;25.60;;;;;;10425875;28;20236;-70
2023/06/16 01:23:07;;;;;;;5.90;4.50;;;18.40;25.10;;;;;;10441164;28;20291;-70
2023/06/16 01:28:12;;;;;;;4.53;4.13;;;18.30;26.10;;;;;;10441436;28;20730;-70
2023/06/16 01:33:17;;;;;;;4.03;3.73;;;18.20;25.40;;;;;;10444128;28;20765;-70
2023/06/16 01:38:21;;;;;;;3.97;3.67;;;18.10;25.00;;;;;;10430673;28;20229;-70
2023/06/16 01:43:27;;;;;;;4.37;3.97;;;18.00;25.30;;;;;;10436769;28;20596;-71
2023/06/16 01:48:31;;;;;;;4.23;3.93;;;18.10;25.70;;;;;;10435558;28;20233;-71
2023/06/16 01:53:34;;;;;;;4.50;4.10;;;18.20;25.20;;;;;;10436118;28;20225;-71
2023/06/16 01:58:39;;;;;;;3.87;3.63;;;18.30;25.20;;;;;;10435854;28;20924;-71
2023/06/16 02:03:46;;;;;;;5.43;3.60;;;18.40;25.50;;;;;;10422660;28;20239;-70
2023/06/16 02:08:53;;;;;;;4.20;3.90;;;18.40;25.60;;;;;;10434672;28;20286;-70
2023/06/16 02:13:58;;;;;;;4.27;3.83;;;18.40;25.60;;;;;;10430452;28;20840;-71
2023/06/16 02:19:01;;;;;;;3.63;3.33;;;18.50;25.30;;;;;;10429867;28;20232;-71
2023/06/16 02:24:05;;;;;;;4.00;3.70;;;18.60;24.80;;;;;;10430294;28;20224;-71
2023/06/16 02:29:10;;;;;;;3.77;3.47;;;18.50;24.90;;;;;;10427989;28;20224;-70
2023/06/16 02:34:13;;;;;;;6.13;4.33;;;18.50;25.20;;;;;;10430938;28;20715;-70
2023/06/16 02:39:18;;;;;;;3.83;3.53;;;18.50;25.00;;;;;;10428324;28;20319;-70
2023/06/16 02:44:23;;;;;;;4.10;3.80;;;18.50;25.00;;;;;;10430780;28;20242;-71
2023/06/16 02:49:26;;;;;;;3.87;3.60;;;18.40;25.30;;;;;;10431599;28;20263;-70
2023/06/16 02:54:29;;;;;;;4.97;4.27;;;18.40;25.10;;;;;;10434102;28;20769;-71
2023/06/16 02:59:34;;;;;;;4.87;4.47;;;18.40;25.10;;;;;;10432083;28;20720;-70
2023/06/16 03:04:38;;;;;;;4.60;4.20;;;18.30;25.40;;;;;;10430625;28;20319;-71
2023/06/16 03:09:41;;;;;;;5.00;4.30;;;18.00;25.10;;;;;;10425415;28;20257;-70
2023/06/16 03:14:46;;;;;;;5.17;4.77;;;17.80;25.30;;;;;;10433792;28;20245;-70
2023/06/16 03:19:52;;;;;;;5.30;4.83;;;17.60;26.00;;;;;;10437796;28;20771;-71
2023/06/16 03:24:55;;;;;;;4.97;4.57;;;17.50;25.80;;;;;;10430018;28;20248;-70
2023/06/16 03:29:59;;;;;;;5.30;4.83;;;17.30;25.80;;;;;;10444552;28;20779;-70
2023/06/16 03:35:03;;;;;;;5.03;4.63;;;17.20;26.50;;;;;;10433356;28;20221;-69
2023/06/16 03:40:08;;;;;;;4.47;4.17;;;17.00;26.20;;;;;;10435494;28;20228;-70
2023/06/16 03:45:13;;;;;;;4.53;4.10;;;16.70;26.60;;;;;;10433519;28;20231;-70
2023/06/16 03:50:16;;;;;;;4.17;3.87;;;16.50;27.00;;;;;;10429413;28;20224;-71
2023/06/16 03:55:20;;;;;;;5.20;4.10;;;16.40;26.90;;;;;;10434876;28;20237;-70
2023/06/16 04:00:25;;;;;;;4.53;4.23;;;16.40;27.20;;;;;;10427409;28;20257;-70
2023/06/16 04:05:29;;;;;;;4.83;4.43;;;16.50;27.70;;;;;;10435958;28;20231;-70
2023/06/16 04:10:33;;;;;;;5.10;4.70;;;16.60;27.20;;;;;;10435392;28;20934;-70
2023/06/16 04:15:37;;;;;;;5.37;4.87;;;16.70;27.20;;;;;;10429900;28;20319;-70
2023/06/16 04:20:40;;;;;;;5.07;4.63;;;16.80;27.80;;;;;;10445514;28;20237;-71
2023/06/16 04:25:44;;;;;;;5.07;4.63;;;16.90;27.20;;;;;;10429564;28;20622;-70
2023/06/16 04:30:49;;;;;;;5.70;4.83;;;17.00;27.20;;;;;;10428306;28;20224;-71
2023/06/16 04:35:52;;;;;;;5.13;4.70;;;17.00;27.80;;;;;;10425074;28;21218;-70
2023/06/16 04:40:55;;;;;;;5.37;4.97;;;17.10;27.50;;;;;;10426902;28;20253;-70
2023/06/16 04:46:00;;;;;;;6.17;5.57;;;17.10;27.50;;;;;;10429498;28;20231;-70
2023/06/16 04:51:04;;;;;;;5.30;4.90;;;17.10;28.00;;;;;;10433632;28;20251;-70
2023/06/16 04:56:07;;;;;;;6.40;5.80;;;17.00;27.70;;;;;;10435665;28;20236;-70
2023/06/16 05:01:14;;;;;;;6.90;5.27;;;17.00;28.10;;;;;;10428395;28;20225;-70
2023/06/16 05:06:17;;;;;;;5.63;5.13;;;16.90;28.90;;;;;;10435992;28;20344;-71
2023/06/16 05:11:21;;;;;;;6.40;5.90;;;17.00;28.50;;;;;;10441167;28;20229;-71
2023/06/16 05:16:26;;;;;;;6.77;6.17;;;17.00;28.60;;;;;;10418143;28;20309;-70
2023/06/16 05:21:29;;;;;;;6.50;5.90;;;17.10;29.50;;;;;;10428951;28;20233;-70
2023/06/16 05:26:32;;;;;;;6.57;5.97;;;17.20;29.20;;;;;;10419253;28;20768;-69
2023/06/16 05:31:37;;;;;;;5.80;5.37;;;17.30;29.30;;;;;;10425800;28;20225;-70
2023/06/16 05:36:40;;;;;;;6.47;5.93;;;17.30;30.10;;;;;;10424990;28;20244;-71
2023/06/16 05:41:44;;;;;;;6.73;5.57;;;17.40;29.60;;;;;;10430319;28;20237;-71
2023/06/16 05:46:48;;;;;;;8.47;6.47;;;17.60;29.70;;;;;;10422402;28;20234;-70
2023/06/16 05:51:52;;;;;;;7.73;7.03;;;17.80;30.40;;;;;;10430613;28;20243;-71
2023/06/16 05:56:56;;;;;;;6.60;6.10;;;18.00;30.00;;;;;;10426723;28;20735;-71
2023/06/16 06:02:00;;;;;;;6.60;6.07;;;18.20;30.20;;;;;;10429536;28;20588;-70
2023/06/16 06:07:04;;;;;;;7.83;7.13;;;18.30;30.90;;;;;;10427846;28;20316;-67
2023/06/16 06:12:09;;;;;;;7.20;6.60;;;18.50;30.70;;;;;;10437653;28;20221;-67
2023/06/16 06:17:13;;;;;;;10.43;6.27;;;18.80;30.80;;;;;;10436118;28;20876;-66
2023/06/16 06:22:17;;;;;;;8.60;6.97;;;19.00;31.00;;;;;;10436745;28;20252;-67
2023/06/16 06:27:20;;;;;;;7.00;6.40;;;19.30;30.50;;;;;;10434981;28;20554;-66
2023/06/16 06:32:24;;;;;;;7.47;6.73;;;19.50;30.30;;;;;;10418979;28;20607;-67
2023/06/16 06:37:30;;;;;;;7.47;6.87;;;19.70;30.70;;;;;;10414028;28;20289;-66
2023/06/16 06:42:33;;;;;;;6.40;5.80;;;20.00;30.20;;;;;;10414047;28;20233;-66
2023/06/16 06:47:38;;;;;;;6.40;5.90;;;20.20;29.90;;;;;;10416401;28;20885;-66
2023/06/16 06:52:41;;;;;;;5.13;4.83;;;20.50;30.20;;;;;;10425221;28;20261;-66
2023/06/16 06:57:44;;;;;;;4.93;4.53;;;20.80;29.90;;;;;;10424422;28;20327;-66
2023/06/16 07:02:49;;;;;;;4.80;4.43;;;21.10;29.60;;;;;;10428280;28;20252;-67
2023/06/16 07:07:52;;;;;;;4.47;4.07;;;21.30;29.20;;;;;;10431711;28;20249;-67
2023/06/16 07:12:55;;;;;;;4.67;4.27;;;21.60;28.70;;;;;;10422998;28;20233;-67
2023/06/16 07:18:00;;;;;;;4.50;4.10;;;21.80;28.30;;;;;;10430101;28;20716;-66
2023/06/16 07:23:03;;;;;;;4.30;3.90;;;22.10;28.30;;;;;;10421449;28;20260;-67
2023/06/16 07:28:07;;;;;;;4.10;3.80;;;22.30;27.80;;;;;;10414835;28;20229;-69
2023/06/16 07:33:12;;;;;;;4.83;3.80;;;22.60;27.90;;;;;;10424791;28;20761;-70
2023/06/16 07:38:15;;;;;;;4.97;4.13;;;22.80;27.20;;;;;;10429727;28;20228;-70
2023/06/16 07:43:21;;;;;;;4.30;3.90;;;23.10;27.40;;;;;;10429564;28;20221;-69
2023/06/16 07:48:25;;;;;;;5.07;4.67;;;23.30;27.50;;;;;;10430937;28;20233;-67
2023/06/16 07:53:28;;;;;;;5.23;4.83;;;23.50;26.80;;;;;;10436867;28;20228;-65
2023/06/16 07:58:31;;;;;;;4.90;4.50;;;23.60;26.90;;;;;;10426097;28;20233;-65
2023/06/16 08:03:36;;;;;;;5.87;4.70;;;23.80;27.00;;;;;;10437582;28;20314;-65
2023/06/16 08:08:40;;;;;;;11.93;6.47;;;23.90;26.90;;;;;;10423584;28;20372;-65
2023/06/16 08:13:43;;;;;;;4.93;4.50;;;24.10;26.60;;;;;;10418835;28;20256;-65
2023/06/16 08:18:47;;;;;;;4.53;4.13;;;24.30;26.00;;;;;;10419927;28;20972;-65
2023/06/16 08:23:52;;;;;;;5.23;4.37;;;24.30;25.30;;;;;;10423265;28;20229;-65
2023/06/16 08:28:55;;;;;;;4.50;4.20;;;24.40;25.60;;;;;;10426019;28;20319;-68
2023/06/16 08:34:01;;;;;;;4.73;4.33;;;24.50;25.70;;;;;;10426112;28;20233;-68
2023/06/16 08:39:05;;;;;;;4.13;3.80;;;24.60;25.10;;;;;;10432154;28;20932;-69
2023/06/16 08:44:10;;;;;;;5.60;4.43;;;24.70;25.00;;;;;;10422541;28;20221;-69
2023/06/16 08:49:17;;;;;;;4.87;4.40;;;24.90;24.50;;;;;;10423556;28;20241;-68
2023/06/16 08:54:26;;;;;;;4.80;4.23;;;25.00;23.90;;;;;;10425154;28;20701;-68
2023/06/16 08:59:32;;;;;;;4.20;3.80;;;25.20;22.40;;;;;;10423435;28;20225;-68
2023/06/16 09:04:37;;;;;;;4.17;3.73;;;25.30;23.30;;;;;;10421911;28;20228;-68
2023/06/16 09:09:40;;;;;;;4.27;3.30;;;25.40;22.60;;;;;;10428784;28;20232;-68
2023/06/16 09:14:49;;;;;;;3.80;3.50;;;25.50;21.30;;;;;;10420480;28;20248;-68
2023/06/16 09:19:55;;;;;;;3.80;3.40;;;25.60;21.70;;;;;;10425614;28;20221;-70
2023/06/16 09:24:59;;;;;;;5.27;3.57;;;25.80;20.60;;;;;;10424568;28;20237;-70
2023/06/16 09:30:02;;;;;;;4.20;3.90;;;26.00;20.30;;;;;;10420871;28;20232;-69
2023/06/16 09:35:20;;;;;;;3.97;3.60;;;26.10;19.40;;;;;;10408950;28;20221;-69
2023/06/16 09:40:27;;;;;;;3.63;3.33;;;26.20;19.10;;;;;;10421941;28;20295;-70
2023/06/16 09:45:32;;;;;;;4.83;3.97;;;26.40;19.30;;;;;;10427095;28;20310;-70
2023/06/16 09:50:37;;;;;;;4.03;3.70;;;26.50;19.30;;;;;;10437282;28;20245;-70
2023/06/16 09:55:41;;;;;;;5.20;3.70;;;26.50;19.10;;;;;;10439645;28;20232;-65
2023/06/16 10:00:45;;;;;;;5.77;3.87;;;26.50;19.30;;;;;;10434968;28;20701;-65
2023/06/16 10:05:54;;;;;;;4.00;3.70;;;26.30;19.20;;;;;;10429807;28;20232;-70
2023/06/16 10:10:58;;;;;;;5.67;3.60;;;26.20;20.00;;;;;;10431183;28;20221;-70
2023/06/16 10:16:06;;;;;;;3.70;3.40;;;26.20;21.10;;;;;;10431902;28;20231;-70
2023/06/16 10:21:12;;;;;;;4.00;3.60;;;26.30;20.40;;;;;;10422523;28;20620;-70
2023/06/16 10:26:16;;;;;;;4.33;3.80;;;26.40;19.20;;;;;;10424303;28;20237;-70
2023/06/16 10:31:19;;;;;;;5.50;3.87;;;26.40;19.80;;;;;;10429475;28;20221;-70
2023/06/16 10:36:24;;;;;;;4.90;4.40;;;26.50;19.30;;;;;;10422235;28;20238;-71
2023/06/16 10:41:30;;;;;;;5.87;4.07;;;26.60;18.50;;;;;;10436115;28;20637;-71
2023/06/16 10:46:33;;;;;;;4.80;4.10;;;26.70;18.00;;;;;;10439767;28;20640;-70
2023/06/16 10:51:56;;;;;;;5.33;4.20;;;26.90;18.50;;;;;;10436038;28;20229;-71
2023/06/16 10:57:06;;;;;;;5.23;4.83;;;27.00;17.20;;;;;;10427634;28;20340;-69
2023/06/16 11:02:19;;;;;;;5.00;4.60;;;27.00;17.00;;;;;;10427139;28;20227;-71
2023/06/16 11:07:24;;;;;;;5.23;4.50;;;27.10;14.80;;;;;;10427156;28;20252;-70
2023/06/16 11:12:37;;;;;;;8.17;5.30;;;27.00;16.60;;;;;;10424020;28;20233;-70
2023/06/16 11:17:42;;;;;;;5.57;4.97;;;27.10;16.40;;;;;;10431178;28;20230;-71
2023/06/16 11:22:49;;;;;;;5.70;5.30;;;27.20;16.30;;;;;;10429789;28;20233;-70
2023/06/16 11:27:53;;;;;;;5.80;4.90;;;27.20;15.10;;;;;;10424379;28;20221;-70
2023/06/16 11:32:57;;;;;;;5.43;4.90;;;27.30;15.80;;;;;;10421058;28;20341;-71
2023/06/16 11:38:01;;;;;;;5.63;5.00;;;27.40;15.80;;;;;;10423768;28;20290;-71
2023/06/16 11:43:06;;;;;;;5.90;5.30;;;27.50;15.70;;;;;;10423648;28;20240;-71
2023/06/16 11:48:10;;;;;;;5.53;5.03;;;27.60;15.10;;;;;;10416193;28;20260;-68
2023/06/16 11:53:16;;;;;;;6.10;4.80;;;27.70;15.40;;;;;;10417974;28;20992;-68
2023/06/16 11:58:21;;;;;;;5.50;5.00;;;27.80;13.90;;;;;;10425907;28;20226;-68
2023/06/16 12:03:24;;;;;;;6.27;5.70;;;27.80;14.40;;;;;;10419220;28;20237;-69
2023/06/16 12:08:42;;;;;;;6.07;5.30;;;27.70;14.70;;;;;;10421471;28;20744;-68
2023/06/16 12:13:45;;;;;;;5.00;4.60;;;27.70;13.70;;;;;;10421286;28;20238;-68
2023/06/16 12:18:50;;;;;;;6.00;4.63;;;27.70;15.40;;;;;;10432689;28;20239;-70
2023/06/16 12:23:56;;;;;;;5.20;4.80;;;27.70;14.50;;;;;;10427928;28;20229;-71
2023/06/16 12:29:02;;;;;;;5.30;4.80;;;27.60;14.40;;;;;;10433694;28;20653;-70
2023/06/16 12:34:05;;;;;;;5.30;4.77;;;27.50;14.40;;;;;;10419351;28;20221;-69
2023/06/16 12:39:17;;;;;;;4.73;4.33;;;27.40;14.50;;;;;;10419803;28;20231;-69
2023/06/16 12:44:21;;;;;;;4.77;4.13;;;27.30;15.10;;;;;;10428651;28;20240;-69
2023/06/16 12:49:24;;;;;;;5.27;3.90;;;27.40;15.60;;;;;;10435320;28;20684;-69
2023/06/16 12:54:29;;;;;;;4.30;4.00;;;27.50;15.60;;;;;;10422214;28;20228;-69
2023/06/16 12:59:32;;;;;;;4.37;3.97;;;27.80;14.50;;;;;;10416882;28;20237;-68
2023/06/16 13:04:35;;;;;;;5.93;4.27;;;27.80;14.50;;;;;;10422793;28;20249;-68
2023/06/16 13:09:41;;;;;;;4.30;4.00;;;27.70;14.40;;;;;;10428602;28;20742;-68
2023/06/16 13:14:44;;;;;;;4.30;3.97;;;27.60;14.70;;;;;;10421955;28;20220;-68
2023/06/16 13:19:48;;;;;;;3.97;3.60;;;27.40;15.00;;;;;;10433191;28;20757;-68
2023/06/16 13:24:52;;;;;;;4.20;3.90;;;27.30;15.50;;;;;;10433363;28;20236;-70
2023/06/16 13:29:56;;;;;;;4.20;3.60;;;27.30;14.50;;;;;;10436133;28;20228;-70
2023/06/16 13:34:59;;;;;;;3.60;3.30;;;27.40;15.20;;;;;;10434013;28;20569;-70
2023/06/16 13:40:05;;;;;;;3.63;3.33;;;27.40;15.40;;;;;;10442536;28;20232;-69
2023/06/16 13:45:08;;;;;;;3.43;3.23;;;27.50;15.90;;;;;;10438591;28;20243;-69
2023/06/16 13:50:12;;;;;;;3.87;3.57;;;27.60;15.90;;;;;;10436206;28;20759;-70
2023/06/16 13:55:16;;;;;;;3.80;3.50;;;27.70;15.60;;;;;;10440641;28;20255;-70
2023/06/16 14:00:20;;;;;;;4.10;3.70;;;27.70;14.70;;;;;;10431346;28;20221;-70
2023/06/16 14:05:24;;;;;;;4.43;4.13;;;27.70;15.00;;;;;;10436896;28;20240;-64
2023/06/16 14:10:29;;;;;;;3.80;3.50;;;27.70;14.90;;;;;;10432887;28;20224;-65
2023/06/16 14:15:34;;;;;;;3.60;3.30;;;27.80;14.70;;;;;;10437781;28;20267;-70
2023/06/16 14:20:37;;;;;;;3.77;3.47;;;27.90;14.20;;;;;;10435396;28;20232;-70
2023/06/16 14:25:45;;;;;;;6.57;3.60;;;27.90;13.80;;;;;;10436483;28;20693;-71
2023/06/16 14:30:49;;;;;;;4.10;3.30;;;27.70;13.40;;;;;;10440110;28;20232;-72
2023/06/16 14:35:52;;;;;;;3.30;3.00;;;27.60;14.00;;;;;;10439743;28;20234;-72
2023/06/16 14:40:56;;;;;;;5.07;3.20;;;27.50;14.30;;;;;;10425354;28;20220;-72
2023/06/16 14:45:59;;;;;;;3.60;3.30;;;27.40;14.40;;;;;;10435627;28;20231;-73
2023/06/16 14:51:03;;;;;;;3.20;3.00;;;27.20;14.60;;;;;;10433902;28;20229;-72
2023/06/16 14:56:07;;;;;;;3.60;3.30;;;27.10;14.90;;;;;;10433621;28;20315;-70
2023/06/16 15:01:10;;;;;;;3.90;3.50;;;27.10;15.20;;;;;;10439165;28;20297;-70
2023/06/16 15:06:15;;;;;;;3.60;3.20;;;27.00;15.20;;;;;;10432772;28;20236;-70
2023/06/16 15:11:20;;;;;;;3.37;3.07;;;27.00;15.20;;;;;;10432872;28;20230;-70
2023/06/16 15:16:23;;;;;;;3.53;3.23;;;27.10;15.10;;;;;;10425881;28;20224;-69
2023/06/16 15:21:27;;;;;;;4.87;3.30;;;27.20;15.20;;;;;;10443121;28;20236;-68
2023/06/16 15:26:33;;;;;;;3.40;3.10;;;27.30;15.30;;;;;;10425041;28;20229;-71
2023/06/16 15:31:36;;;;;;;3.60;3.30;;;27.40;15.20;;;;;;10423777;28;20224;-65
2023/06/16 15:36:39;;;;;;;4.50;3.47;;;27.40;15.00;;;;;;10427096;28;20275;-64
2023/06/16 15:41:44;;;;;;;3.30;3.10;;;27.40;15.20;;;;;;10427270;28;20239;-69
2023/06/16 15:46:47;;;;;;;3.53;3.20;;;27.30;15.50;;;;;;10425131;28;20235;-68
2023/06/16 15:51:51;;;;;;;7.37;3.73;;;27.10;15.80;;;;;;10428165;28;20224;-69
2023/06/16 15:56:55;;;;;;;3.07;2.77;;;26.80;16.90;;;;;;10427958;28;20234;-66
2023/06/16 16:01:59;;;;;;;2.77;2.57;;;26.40;17.80;;;;;;10424182;28;20229;-66
2023/06/16 16:07:02;;;;;;;2.73;2.40;;;26.00;18.20;;;;;;10430674;28;20313;-66
2023/06/16 16:12:08;;;;;;;2.80;2.60;;;25.70;19.40;;;;;;10429178;28;20230;-65
2023/06/16 16:17:12;;;;;;;2.60;2.40;;;25.60;20.40;;;;;;10425474;28;20235;-65
2023/06/16 16:22:16;;;;;;;2.60;2.40;;;25.50;20.20;;;;;;10426924;28;20213;-65
2023/06/16 16:27:21;;;;;;;3.90;2.30;;;25.40;20.30;;;;;;10428078;28;20233;-65
2023/06/16 16:32:25;;;;;;;3.10;2.83;;;25.50;20.60;;;;;;10429611;28;20682;-65
2023/06/16 16:37:29;;;;;;;3.20;3.00;;;25.50;20.70;;;;;;10432196;28;20304;-65
2023/06/16 16:42:33;;;;;;;3.33;3.00;;;25.60;20.60;;;;;;10431982;28;20237;-65
2023/06/16 16:47:36;;;;;;;2.97;2.77;;;25.50;20.40;;;;;;10431612;28;20233;-65
2023/06/16 16:52:40;;;;;;;4.53;3.20;;;25.60;20.20;;;;;;10424772;28;20732;-65
2023/06/16 16:57:44;;;;;;;3.57;3.00;;;25.50;20.00;;;;;;10427563;28;20312;-65
2023/06/16 17:02:47;;;;;;;3.27;3.07;;;25.50;20.30;;;;;;10420179;28;20231;-65
2023/06/16 17:07:51;;;;;;;3.10;2.90;;;25.50;20.40;;;;;;10433311;28;20228;-65
2023/06/16 17:12:55;;;;;;;3.10;2.90;;;25.60;20.60;;;;;;10429341;28;20232;-65
2023/06/16 17:17:59;;;;;;;2.90;2.70;;;25.60;20.30;;;;;;10425766;28;20231;-65
2023/06/16 17:23:02;;;;;;;2.53;2.43;;;25.70;19.80;;;;;;10416653;28;20223;-65
2023/06/16 17:28:06;;;;;;;2.70;2.50;;;25.70;19.50;;;;;;10434912;28;20225;-65
2023/06/16 17:33:10;;;;;;;2.60;2.40;;;25.70;19.40;;;;;;10424917;28;20741;-65
2023/06/16 17:38:13;;;;;;;2.60;2.40;;;25.70;19.50;;;;;;10413890;28;20703;-68
2023/06/16 17:43:18;;;;;;;3.60;2.60;;;25.70;19.50;;;;;;10420692;28;20883;-69
2023/06/16 17:48:21;;;;;;;2.90;2.70;;;25.60;19.70;;;;;;10420383;28;20356;-69
2023/06/16 17:53:24;;;;;;;2.90;2.70;;;25.50;20.20;;;;;;10422507;28;20642;-69
2023/06/16 17:58:29;;;;;;;3.53;2.83;;;25.50;20.50;;;;;;10422930;28;20238;-68
2023/06/16 18:03:32;;;;;;;3.30;3.00;;;25.40;21.60;;;;;;10418580;28;20233;-65
2023/06/16 18:08:36;;;;;;;2.83;2.63;;;25.50;21.60;;;;;;10426603;28;20225;-65
2023/06/16 18:13:40;;;;;;;3.00;2.80;;;25.40;21.60;;;;;;10425526;28;20232;-64
2023/06/16 18:18:43;;;;;;;3.03;2.73;;;25.40;22.60;;;;;;10430890;28;20229;-65
2023/06/16 18:23:47;;;;;;;3.10;2.90;;;25.40;22.30;;;;;;10432351;28;20337;-65
2023/06/16 18:28:52;;;;;;;2.97;2.77;;;25.40;22.50;;;;;;10435639;28;20779;-65
2023/06/16 18:33:55;;;;;;;2.67;2.47;;;25.30;22.80;;;;;;10435350;28;20232;-65
2023/06/16 18:39:14;;;;;;;3.13;2.83;;;25.30;22.20;;;;;;10438870;28;20241;-69
2023/06/16 18:44:19;;;;;;;3.00;2.80;;;25.20;22.80;;;;;;10439504;28;20657;-68
2023/06/16 18:49:22;;;;;;;2.70;2.50;;;25.20;22.40;;;;;;10440699;28;20799;-68
2023/06/16 18:54:26;;;;;;;3.13;2.93;;;25.10;21.80;;;;;;10426978;28;20232;-68
2023/06/16 18:59:32;;;;;;;3.00;2.80;;;25.10;21.70;;;;;;10423274;28;20232;-68
2023/06/16 19:04:35;;;;;;;3.03;2.83;;;25.00;21.90;;;;;;10421722;28;20221;-68
2023/06/16 19:09:38;;;;;;;3.10;2.90;;;25.00;21.90;;;;;;10426968;28;20275;-68
2023/06/16 19:14:44;;;;;;;5.23;4.70;;;25.00;22.20;;;;;;10425602;28;20324;-68
2023/06/16 19:19:47;;;;;;;7.83;4.83;;;25.00;22.40;;;;;;10424480;28;20327;-68
2023/06/16 19:24:50;;;;;;;7.03;5.00;;;24.90;22.20;;;;;;10432838;28;20234;-68
2023/06/16 19:29:55;;;;;;;4.03;3.73;;;24.90;22.30;;;;;;10430694;28;20231;-68
2023/06/16 19:34:58;;;;;;;3.20;2.90;;;24.90;22.40;;;;;;10430186;28;20773;-68
2023/06/16 19:40:04;;;;;;;4.37;3.10;;;24.80;22.50;;;;;;10439703;28;20217;-68
2023/06/16 19:45:11;;;;;;;3.33;3.03;;;24.70;23.20;;;;;;10434559;28;20229;-68
2023/06/16 19:50:14;;;;;;;3.53;3.23;;;24.70;23.10;;;;;;10423633;28;20214;-68
2023/06/16 19:55:17;;;;;;;3.30;2.97;;;24.60;23.40;;;;;;10423061;28;20255;-68
2023/06/16 20:00:22;;;;;;;3.73;3.43;;;24.50;23.30;;;;;;10423927;28;20247;-68
2023/06/16 20:05:25;;;;;;;4.03;3.13;;;24.40;23.70;;;;;;10427446;28;20240;-69
2023/06/16 20:10:29;;;;;;;3.70;3.40;;;24.30;23.60;;;;;;10423232;28;20239;-69
2023/06/16 20:15:34;;;;;;;4.77;3.53;;;24.10;23.90;;;;;;10418441;28;20324;-69
2023/06/16 20:20:38;;;;;;;3.40;3.20;;;24.00;24.50;;;;;;10424095;28;20227;-69
2023/06/16 20:25:41;;;;;;;3.90;3.60;;;23.80;24.40;;;;;;10420447;28;20256;-69
2023/06/16 20:30:46;;;;;;;3.87;3.37;;;23.60;24.50;;;;;;10417097;28;20264;-69
2023/06/16 20:35:50;;;;;;;3.23;3.00;;;23.50;25.20;;;;;;10419554;28;20253;-70
2023/06/16 20:40:55;;;;;;;4.00;3.67;;;23.40;24.90;;;;;;10421013;28;20224;-70
2023/06/16 20:46:00;;;;;;;3.53;3.23;;;23.40;25.40;;;;;;10431708;28;20251;-70
2023/06/16 20:51:04;;;;;;;4.83;3.23;;;23.30;25.60;;;;;;10434510;28;20849;-70
2023/06/16 20:56:07;;;;;;;3.67;3.37;;;23.30;25.40;;;;;;10431688;28;20237;-70
2023/06/16 21:01:13;;;;;;;3.50;3.20;;;23.30;25.60;;;;;;10436653;28;20212;-70
2023/06/16 21:06:18;;;;;;;3.90;3.60;;;23.10;26.10;;;;;;10429744;28;20271;-70
2023/06/16 21:11:25;;;;;;;3.20;3.00;;;23.00;25.80;;;;;;10437669;28;21723;-70
2023/06/16 21:16:30;;;;;;;3.70;3.40;;;23.00;26.00;;;;;;10429800;28;20236;-70
2023/06/16 21:21:33;;;;;;;4.20;3.80;;;22.90;26.50;;;;;;10433561;28;20713;-70
2023/06/16 21:26:36;;;;;;;3.80;3.50;;;23.00;26.10;;;;;;10434443;28;20249;-70
2023/06/16 21:31:41;;;;;;;4.33;3.93;;;23.00;26.00;;;;;;10430464;28;20324;-70
2023/06/16 21:36:44;;;;;;;5.37;3.77;;;23.00;26.70;;;;;;10435854;28;20613;-70
2023/06/16 21:41:47;;;;;;;4.07;3.77;;;23.00;26.50;;;;;;10443206;28;20328;-71
2023/06/16 21:46:52;;;;;;;4.00;3.70;;;22.90;26.40;;;;;;10435933;28;20232;-70
2023/06/16 21:51:55;;;;;;;3.93;3.53;;;22.90;27.10;;;;;;10440274;28;20233;-70
2023/06/16 21:56:59;;;;;;;4.40;3.70;;;22.80;26.60;;;;;;10441133;28;20304;-70
2023/06/16 22:02:04;;;;;;;4.20;3.80;;;22.70;26.80;;;;;;10440499;28;20280;-70
2023/06/16 22:07:09;;;;;;;3.83;3.07;;;22.60;27.10;;;;;;10446305;28;20252;-69
2023/06/16 22:12:13;;;;;;;5.40;4.07;;;22.50;27.00;;;;;;10433389;28;20653;-70
2023/06/16 22:17:18;;;;;;;4.53;3.90;;;22.40;27.00;;;;;;10443200;28;20807;-69
2023/06/16 22:22:22;;;;;;;4.13;3.73;;;22.40;27.10;;;;;;10442813;28;20238;-69
2023/06/16 22:27:26;;;;;;;3.63;3.30;;;22.30;26.90;;;;;;10437489;28;20308;-69
2023/06/16 22:32:30;;;;;;;3.97;3.60;;;22.20;26.80;;;;;;10442476;28;20800;-69
2023/06/16 22:37:34;;;;;;;4.07;3.73;;;21.90;27.40;;;;;;10438026;28;20229;-69
2023/06/16 22:42:37;;;;;;;4.60;4.20;;;21.70;27.30;;;;;;10432757;28;20237;-69
2023/06/16 22:47:42;;;;;;;3.90;3.60;;;21.60;27.60;;;;;;10432340;28;20761;-69
2023/06/16 22:52:46;;;;;;;4.33;3.83;;;21.50;27.90;;;;;;10440131;28;20323;-69
2023/06/16 22:57:49;;;;;;;4.23;3.83;;;21.40;27.80;;;;;;10435327;28;20237;-69
2023/06/16 23:02:54;;;;;;;5.63;4.10;;;21.40;27.80;;;;;;10432591;28;20232;-69
2023/06/16 23:07:58;;;;;;;5.97;4.23;;;21.20;28.00;;;;;;10440609;28;20580;-69
2023/06/16 23:13:01;;;;;;;4.60;4.20;;;21.00;28.00;;;;;;10435000;28;20818;-66
2023/06/16 23:18:06;;;;;;;6.43;3.93;;;20.70;28.10;;;;;;10437922;28;20352;-66
2023/06/16 23:23:09;;;;;;;3.77;3.47;;;20.60;28.80;;;;;;10429729;28;20244;-66
2023/06/16 23:28:13;;;;;;;4.33;3.93;;;20.60;28.20;;;;;;10428736;28;20235;-67
2023/06/16 23:33:20;;;;;;;4.50;4.10;;;20.60;28.60;;;;;;10429362;28;20709;-66
2023/06/16 23:38:24;;;;;;;3.90;3.60;;;20.60;28.80;;;;;;10427162;28;20730;-66
2023/06/16 23:43:27;;;;;;;5.27;4.50;;;20.70;28.50;;;;;;10449414;28;20301;-66
2023/06/16 23:48:32;;;;;;;4.80;4.33;;;20.60;28.50;;;;;;10429855;28;20259;-66
2023/06/16 23:53:35;;;;;;;4.00;3.70;;;20.60;28.30;;;;;;10433521;28;20232;-66
2023/06/16 23:58:38;;;;;;;4.30;3.87;;;20.60;27.80;;;;;;10426031;28;21143;-67
